Spirit Of Vi — CFL2070 — position and weather

sailwx.info

Track history (hours):
 
Tides and Currents Weather Stations Pressure Air Temp Water Temp Dewpoint Dewpoint Depression Visibility Wind Speed Wind Dir Waves Ship Positions

Spirit Of Vi

Last reported at 2018-Apr-25 02:31 UTC. Time now 2018-Apr-25 02:36 UTC.
Position N 48°44' W 123°24'.

Length 168 m; draft 5 m.

Type: Ship. MMSI: 316001269.

Date/timePositionNaut miles runAvg speedWind from/ knotsBaromVisibWave heightAir tempDewpointWater temp
2018-Apr-25 02:31N 48°44' W 123°24'3 5.1
2018-Apr-25 02:00N 48°41' W 123°25'1 1.9
2018-Apr-25 01:31N 48°42' W 123°23'918.4
2018-Apr-25 01:01N 48°51' W 123°21'918.1
2018-Apr-25 00:30N 48°58' W 123°12'4 7.9
2018-Apr-25 00:00N 49°00' W 123°08'0 0.6
2018-Apr-24 23:30N 49°00' W 123°08'918.0
2018-Apr-24 23:00N 48°53' W 123°17'713.9
2018-Apr-24 22:30N 48°47' W 123°21'611.8
2018-Apr-24 22:00N 48°41' W 123°25'0 0.0
2018-Apr-24 21:31N 48°41' W 123°25'713.5
2018-Apr-24 21:00N 48°48' W 123°21'816.6
2018-Apr-24 20:30N 48°55' W 123°15'713.1
2018-Apr-24 19:58N 49°00' W 123°08'0 0.0
2018-Apr-24 19:31N 49°00' W 123°08'917.3
2018-Apr-24 18:58N 48°53' W 123°17'715.9
2018-Apr-24 18:30N 48°46' W 123°21'511.0
2018-Apr-24 18:00N 48°41' W 123°25'0 0.0
2018-Apr-24 17:30N 48°41' W 123°25'814.7
2018-Apr-24 16:59N 48°48' W 123°21'714.1
2018-Apr-24 16:30N 48°55' W 123°16'815.6
2018-Apr-24 16:00N 49°00' W 123°08'0 0.0
2018-Apr-24 15:30N 49°00' W 123°08'715.0
2018-Apr-24 15:00N 48°55' W 123°15'814.9
2018-Apr-24 14:30N 48°48' W 123°21'714.3
2018-Apr-24 14:01N 48°41' W 123°25'0 0.1
2018-Apr-24 13:30N 48°41' W 123°25'0 0.0
2018-Apr-24 12:58N 48°41' W 123°25'0 0.0
2018-Apr-24 12:28N 48°41' W 123°25'0 0.0
2018-Apr-24 11:58N 48°41' W 123°25'0 0.0
2018-Apr-24 11:28N 48°41' W 123°25'0 0.0
2018-Apr-24 10:58N 48°41' W 123°25'0 0.0
2018-Apr-24 10:28N 48°41' W 123°25'0 0.0
2018-Apr-24 09:58N 48°41' W 123°25'0 0.0
2018-Apr-24 09:28N 48°41' W 123°25'0 0.0
2018-Apr-24 08:58N 48°41' W 123°25'0 0.0
2018-Apr-24 08:28N 48°41' W 123°25'0 0.0
2018-Apr-24 07:58N 48°41' W 123°25'0 0.0
2018-Apr-24 07:28N 48°41' W 123°25'0 0.0
2018-Apr-24 06:58N 48°41' W 123°25'0 0.0
2018-Apr-24 06:28N 48°41' W 123°25'0 0.0
2018-Apr-24 05:58N 48°41' W 123°25'0 0.0
2018-Apr-24 05:29N 48°41' W 123°25'714.2
2018-Apr-24 05:00N 48°48' W 123°21'713.9
2018-Apr-24 04:30N 48°54' W 123°17'816.8
2018-Apr-24 04:00N 49°00' W 123°08'0 0.0
2018-Apr-24 03:30N 49°00' W 123°08'815.3
2018-Apr-24 03:00N 48°54' W 123°15'815.7
2018-Apr-24 02:30N 48°48' W 123°21'712.8
2018-Apr-24 01:59N 48°41' W 123°25'0 0.0
2018-Apr-24 01:31N 48°41' W 123°25'714.5
2018-Apr-24 01:01N 48°48' W 123°21'816.0
2018-Apr-24 00:30N 48°55' W 123°15'713.5
2018-Apr-24 00:00N 49°00' W 123°08'0 0.1
2018-Apr-23 23:30N 49°00' W 123°08'917.4
2018-Apr-23 23:00N 48°54' W 123°17'714.1
2018-Apr-23 22:31N 48°47' W 123°21'612.7
2018-Apr-23 22:00N 48°41' W 123°25'0 0.2
2018-Apr-23 21:30N 48°41' W 123°25'816.6
2018-Apr-23 21:00N 48°49' W 123°21'917.2
2018-Apr-23 20:30N 48°57' W 123°14'510.4
2018-Apr-23 20:00N 49°00' W 123°08'1 1.3
2018-Apr-23 19:30N 48°60' W 123°09'918.2
2018-Apr-23 19:00N 48°53' W 123°18'715.0
2018-Apr-23 18:31N 48°46' W 123°22'510.0
2018-Apr-23 18:00N 48°41' W 123°25'0 0.3
2018-Apr-23 17:30N 48°41' W 123°25'815.2
2018-Apr-23 17:00N 48°49' W 123°21'815.9
2018-Apr-23 16:30N 48°56' W 123°15'611.3
2018-Apr-23 15:56N 49°00' W 123°08'0 0.0
2018-Apr-23 15:30N 49°00' W 123°08'816.6
2018-Apr-23 15:00N 48°54' W 123°16'715.1
2018-Apr-23 14:31N 48°47' W 123°21'612.3
2018-Apr-23 14:00N 48°41' W 123°25'0 0.0
2018-Apr-23 13:30N 48°41' W 123°25'0 0.0
2018-Apr-23 13:00N 48°41' W 123°25'0 0.0
2018-Apr-23 12:29N 48°41' W 123°25'0 0.0
2018-Apr-23 11:59N 48°41' W 123°25'0 0.0
2018-Apr-23 11:29N 48°41' W 123°25'0 0.0
2018-Apr-23 10:59N 48°41' W 123°25'0 0.0
2018-Apr-23 10:29N 48°41' W 123°25'0 0.0
2018-Apr-23 09:59N 48°41' W 123°25'0 0.0
2018-Apr-23 09:29N 48°41' W 123°25'0 0.0
2018-Apr-23 08:59N 48°41' W 123°25'0 0.0
2018-Apr-23 08:29N 48°41' W 123°25'0 0.0
2018-Apr-23 07:59N 48°41' W 123°25'0 0.0
2018-Apr-23 07:29N 48°41' W 123°25'0 0.0
2018-Apr-23 06:59N 48°41' W 123°25'0 0.0
2018-Apr-23 06:29N 48°41' W 123°25'0 0.0
2018-Apr-23 05:59N 48°41' W 123°25'0 0.0
2018-Apr-23 05:31N 48°41' W 123°25'714.5
2018-Apr-23 05:00N 48°48' W 123°21'814.6
2018-Apr-23 04:30N 48°55' W 123°16'715.4
2018-Apr-23 04:00N 49°00' W 123°08'0 0.0
2018-Apr-23 03:30N 49°00' W 123°08'815.6
2018-Apr-23 03:00N 48°54' W 123°15'816.7
2018-Apr-23 02:30N 48°47' W 123°21'612.2
2018-Apr-23 02:00N 48°41' W 123°25'0 0.4
2018-Apr-23 01:31N 48°41' W 123°24'917.1
2018-Apr-23 01:00N 48°50' W 123°21'714.9
2018-Apr-23 00:31N 48°56' W 123°15'612.1
2018-Apr-23 00:00N 49°00' W 123°08'0 0.0
2018-Apr-22 23:30N 49°00' W 123°08'917.2
2018-Apr-22 23:00N 48°54' W 123°16'714.7
2018-Apr-22 22:30N 48°47' W 123°21'612.2
2018-Apr-22 22:00N 48°41' W 123°25'0 0.0
2018-Apr-22 21:31N 48°41' W 123°25'713.4
2018-Apr-22 21:00N 48°48' W 123°21'816.7
2018-Apr-22 20:31N 48°55' W 123°15'714.2
2018-Apr-22 20:00N 49°00' W 123°08'0 0.1
2018-Apr-22 19:30N 49°00' W 123°08'917.9
2018-Apr-22 19:00N 48°53' W 123°17'714.1
2018-Apr-22 18:30N 48°47' W 123°21'612.3
2018-Apr-22 18:01N 48°41' W 123°25'0 0.2
2018-Apr-22 17:31N 48°41' W 123°25'815.3
2018-Apr-22 17:01N 48°49' W 123°21'815.7
2018-Apr-22 16:30N 48°56' W 123°15'713.4
2018-Apr-22 16:00N 49°00' W 123°08'1 2.2
2018-Apr-22 15:30N 48°59' W 123°09'611.7
2018-Apr-22 15:00N 48°55' W 123°14'815.9
2018-Apr-22 14:30N 48°48' W 123°21'714.6
2018-Apr-22 14:00N 48°41' W 123°25'0 0.0
2018-Apr-22 13:30N 48°41' W 123°25'0 0.0
2018-Apr-22 13:00N 48°41' W 123°25'0 0.0
2018-Apr-22 12:29N 48°41' W 123°25'0 0.0
2018-Apr-22 11:59N 48°41' W 123°25'0 0.0
2018-Apr-22 11:26N 48°41' W 123°25'0 0.0
2018-Apr-22 10:59N 48°41' W 123°25'0 0.0
2018-Apr-22 10:29N 48°41' W 123°25'0 0.0
2018-Apr-22 09:59N 48°41' W 123°25'0 0.0
2018-Apr-22 09:26N 48°41' W 123°25'0 0.0
2018-Apr-22 08:59N 48°41' W 123°25'0 0.0
2018-Apr-22 08:29N 48°41' W 123°25'0 0.0
2018-Apr-22 07:59N 48°41' W 123°25'0 0.0
2018-Apr-22 07:29N 48°41' W 123°25'0 0.0
2018-Apr-22 06:59N 48°41' W 123°25'0 0.0
2018-Apr-22 06:29N 48°41' W 123°25'0 0.0
2018-Apr-22 05:59N 48°41' W 123°25'0 0.1
2018-Apr-22 05:31N 48°41' W 123°25'714.4
2018-Apr-22 05:00N 48°48' W 123°21'815.1
2018-Apr-22 04:30N 48°55' W 123°16'715.1
2018-Apr-22 04:00N 49°00' W 123°08'0 0.0
2018-Apr-22 03:30N 49°00' W 123°08'714.4
2018-Apr-22 03:00N 48°55' W 123°15'816.4
2018-Apr-22 02:30N 48°47' W 123°20'713.3
2018-Apr-22 02:00N 48°41' W 123°25'0 0.1
2018-Apr-22 01:30N 48°41' W 123°25'815.0
2018-Apr-22 01:00N 48°48' W 123°21'714.2
2018-Apr-22 00:30N 48°55' W 123°16'815.1
2018-Apr-22 00:00N 49°00' W 123°08'0 0.0
2018-Apr-21 23:30N 49°00' W 123°08'815.3
2018-Apr-21 23:00N 48°54' W 123°15'714.3
2018-Apr-21 22:30N 48°48' W 123°21'714.8
2018-Apr-21 22:01N 48°41' W 123°25'0 0.0
2018-Apr-21 21:31N 48°41' W 123°25'612.9
2018-Apr-21 21:00N 48°47' W 123°21'816.3
2018-Apr-21 20:29N 48°55' W 123°15'715.1
2018-Apr-21 20:00N 49°00' W 123°08'0 0.3
2018-Apr-21 19:30N 49°00' W 123°08'917.8
2018-Apr-21 19:00N 48°53' W 123°17'714.5
2018-Apr-21 18:30N 48°47' W 123°21'611.3
2018-Apr-21 17:59N 48°41' W 123°25'0 0.2
2018-Apr-21 17:31N 48°41' W 123°25'714.0
2018-Apr-21 17:01N 48°48' W 123°21'816.0
2018-Apr-21 16:31N 48°55' W 123°15'714.0
2018-Apr-21 16:00N 49°00' W 123°08'0 0.0
2018-Apr-21 15:31N 49°00' W 123°08'714.5
2018-Apr-21 15:00N 48°55' W 123°15'816.1
2018-Apr-21 14:30N 48°48' W 123°21'711.3
2018-Apr-21 13:55N 48°41' W 123°25'0 0.0
2018-Apr-21 13:28N 48°41' W 123°25'0 0.0
2018-Apr-21 12:55N 48°41' W 123°25'0 0.0
2018-Apr-21 12:28N 48°41' W 123°25'0 0.0
2018-Apr-21 11:52N 48°41' W 123°25'0 0.0
2018-Apr-21 11:28N 48°41' W 123°25'0 0.0
2018-Apr-21 10:58N 48°41' W 123°25'0 0.0
2018-Apr-21 10:28N 48°41' W 123°25'0 0.0
2018-Apr-21 09:55N 48°41' W 123°25'0 0.0
2018-Apr-21 09:25N 48°41' W 123°25'0 0.0
2018-Apr-21 08:58N 48°41' W 123°25'0 0.0
2018-Apr-21 08:28N 48°41' W 123°25'0 0.0
2018-Apr-21 07:58N 48°41' W 123°25'0 0.0
2018-Apr-21 07:28N 48°41' W 123°25'0 0.0
2018-Apr-21 06:58N 48°41' W 123°25'0 0.0
2018-Apr-21 06:28N 48°41' W 123°25'0 0.0
2018-Apr-21 05:58N 48°41' W 123°25'0 0.0
2018-Apr-21 05:30N 48°41' W 123°25'714.6
2018-Apr-21 05:00N 48°48' W 123°21'815.3
2018-Apr-21 04:31N 48°55' W 123°16'714.9
2018-Apr-21 04:00N 49°00' W 123°08'0 0.1
2018-Apr-21 03:30N 49°00' W 123°08'814.8
2018-Apr-21 02:59N 48°54' W 123°15'816.3
2018-Apr-21 02:30N 48°47' W 123°21'713.2
2018-Apr-21 02:00N 48°41' W 123°25'0 0.4
2018-Apr-21 01:30N 48°41' W 123°24'816.5
2018-Apr-21 01:01N 48°49' W 123°21'814.7
2018-Apr-21 00:30N 48°56' W 123°15'613.0
2018-Apr-21 00:00N 49°00' W 123°08'0 0.0
2018-Apr-20 23:29N 49°00' W 123°08'815.8
2018-Apr-20 23:00N 48°54' W 123°15'816.2
2018-Apr-20 22:30N 48°47' W 123°21'612.2
2018-Apr-20 21:59N 48°41' W 123°25'0 0.1
2018-Apr-20 21:31N 48°41' W 123°25'815.5
2018-Apr-20 21:00N 48°49' W 123°21'816.2
2018-Apr-20 20:30N 48°56' W 123°15'612.0
2018-Apr-20 19:59N 49°00' W 123°08'0 0.3
2018-Apr-20 19:31N 49°00' W 123°08'918.0
2018-Apr-20 19:00N 48°53' W 123°17'612.8
2018-Apr-20 18:30N 48°47' W 123°21'713.0
2018-Apr-20 18:00N 48°41' W 123°25'0 0.0
2018-Apr-20 17:31N 48°41' W 123°25'713.0
2018-Apr-20 17:00N 48°47' W 123°21'816.1
2018-Apr-20 16:30N 48°55' W 123°16'815.3
2018-Apr-20 16:00N 49°00' W 123°08'0 0.1
2018-Apr-20 15:30N 49°00' W 123°08'917.4
2018-Apr-20 15:00N 48°54' W 123°16'815.8
2018-Apr-20 14:30N 48°46' W 123°21'611.0
2018-Apr-20 14:00N 48°41' W 123°25'0 0.0
2018-Apr-20 13:30N 48°41' W 123°25'0 0.0
2018-Apr-20 12:59N 48°41' W 123°25'0 0.0
2018-Apr-20 12:29N 48°41' W 123°25'0 0.0
2018-Apr-20 11:59N 48°41' W 123°25'0 0.0
2018-Apr-20 11:26N 48°41' W 123°25'0 0.0
2018-Apr-20 10:59N 48°41' W 123°25'0 0.0
2018-Apr-20 10:29N 48°41' W 123°25'0 0.0
2018-Apr-20 09:59N 48°41' W 123°25'0 0.0
2018-Apr-20 09:29N 48°41' W 123°25'0 0.0
2018-Apr-20 08:59N 48°41' W 123°25'0 0.0
2018-Apr-20 08:29N 48°41' W 123°25'0 0.0
2018-Apr-20 07:59N 48°41' W 123°25'0 0.0
2018-Apr-20 07:29N 48°41' W 123°25'0 0.0
2018-Apr-20 06:59N 48°41' W 123°25'0 0.0
2018-Apr-20 06:29N 48°41' W 123°25'0 0.0
2018-Apr-20 05:59N 48°41' W 123°25'0 0.3
2018-Apr-20 05:30N 48°41' W 123°25'815.7
2018-Apr-20 05:00N 48°49' W 123°21'917.3
2018-Apr-20 04:30N 48°56' W 123°14'611.1
2018-Apr-20 04:00N 49°00' W 123°08'2 4.2
2018-Apr-20 03:30N 48°59' W 123°10'1019.1
2018-Apr-20 03:00N 48°51' W 123°19'816.8
2018-Apr-20 02:31N 48°44' W 123°24'2 4.8
2018-Apr-20 02:00N 48°41' W 123°25'1 3.0
2018-Apr-20 01:31N 48°42' W 123°23'917.1
2018-Apr-20 00:58N 48°51' W 123°21'715.8
2018-Apr-20 00:30N 48°56' W 123°14'611.1
2018-Apr-20 00:00N 49°00' W 123°08'0 0.0
2018-Apr-19 23:30N 49°00' W 123°08'815.4
2018-Apr-19 22:59N 48°54' W 123°16'815.8
2018-Apr-19 22:30N 48°47' W 123°21'612.9
2018-Apr-19 22:00N 48°41' W 123°25'0 0.0
2018-Apr-19 21:30N 48°41' W 123°25'714.2
2018-Apr-19 21:00N 48°48' W 123°21'815.8
2018-Apr-19 20:30N 48°55' W 123°16'713.6
2018-Apr-19 19:59N 49°00' W 123°08'0 0.1
2018-Apr-19 19:30N 49°00' W 123°08'918.0
2018-Apr-19 19:00N 48°53' W 123°17'714.0
2018-Apr-19 18:30N 48°47' W 123°21'612.2
2018-Apr-19 18:00N 48°41' W 123°25'0 1.0
2018-Apr-19 17:30N 48°42' W 123°24'917.4
2018-Apr-19 16:58N 48°51' W 123°21'714.4
2018-Apr-19 16:30N 48°56' W 123°15'612.8
2018-Apr-19 16:00N 49°00' W 123°08'0 0.2
2018-Apr-19 15:30N 49°00' W 123°08'918.2
2018-Apr-19 15:01N 48°53' W 123°17'714.7
2018-Apr-19 14:31N 48°47' W 123°21'611.4
2018-Apr-19 14:01N 48°41' W 123°25'0 0.0
2018-Apr-19 13:31N 48°41' W 123°25'0 0.0
2018-Apr-19 12:59N 48°41' W 123°25'0 0.0
2018-Apr-19 12:29N 48°41' W 123°25'0 0.0
2018-Apr-19 11:59N 48°41' W 123°25'0 0.0
2018-Apr-19 11:29N 48°41' W 123°25'0 0.0
2018-Apr-19 10:59N 48°41' W 123°25'0 0.0
2018-Apr-19 10:29N 48°41' W 123°25'0 0.0
2018-Apr-19 09:59N 48°41' W 123°25'0 0.0
2018-Apr-19 09:29N 48°41' W 123°25'0 0.0
2018-Apr-19 08:59N 48°41' W 123°25'0 0.0
2018-Apr-19 08:29N 48°41' W 123°25'0 0.0
2018-Apr-19 07:59N 48°41' W 123°25'0 0.0
2018-Apr-19 07:26N 48°41' W 123°25'0 0.0
2018-Apr-19 06:56N 48°41' W 123°25'0 0.0
2018-Apr-19 06:23N 48°41' W 123°25'0 0.0
2018-Apr-19 05:59N 48°41' W 123°25'0 0.7
2018-Apr-19 05:31N 48°42' W 123°24'816.8
2018-Apr-19 05:01N 48°50' W 123°21'917.6
2018-Apr-19 04:30N 48°57' W 123°13'5 9.8
2018-Apr-19 04:00N 49°00' W 123°08'4 7.2
2018-Apr-19 03:30N 48°57' W 123°11'917.9
2018-Apr-19 03:01N 48°51' W 123°21'917.9
2018-Apr-19 02:31N 48°43' W 123°26'2 3.5
2018-Apr-19 02:00N 48°41' W 123°25'3 6.7
2018-Apr-19 01:31N 48°43' W 123°21'816.3
2018-Apr-19 01:00N 48°52' W 123°20'917.7
2018-Apr-19 00:30N 48°58' W 123°11'3 5.6
2018-Apr-19 00:01N 49°00' W 123°08'1 1.7
2018-Apr-18 23:30N 48°60' W 123°09'1020.0
2018-Apr-18 23:00N 48°52' W 123°18'816.5
2018-Apr-18 22:31N 48°44' W 123°23'3 6.3
2018-Apr-18 22:00N 48°41' W 123°25'0 0.6
2018-Apr-18 21:31N 48°41' W 123°24'917.1
2018-Apr-18 21:01N 48°50' W 123°21'713.0
2018-Apr-18 20:30N 48°55' W 123°15'714.1
2018-Apr-18 20:00N 49°00' W 123°08'0 0.0
2018-Apr-18 19:30N 49°00' W 123°08'816.7
2018-Apr-18 19:00N 48°54' W 123°16'713.8
2018-Apr-18 18:30N 48°48' W 123°21'713.6
2018-Apr-18 18:00N 48°41' W 123°25'0 0.1
2018-Apr-18 17:31N 48°41' W 123°25'815.8
2018-Apr-18 17:01N 48°49' W 123°21'814.9
2018-Apr-18 16:30N 48°55' W 123°15'713.7
2018-Apr-18 16:00N 49°00' W 123°08'0 0.2
2018-Apr-18 15:31N 49°00' W 123°08'916.8
2018-Apr-18 15:00N 48°54' W 123°16'713.5
2018-Apr-18 14:30N 48°48' W 123°21'713.7
2018-Apr-18 14:00N 48°41' W 123°25'0 0.0
2018-Apr-18 13:30N 48°41' W 123°25'0 0.0
2018-Apr-18 12:58N 48°41' W 123°25'0 0.0
2018-Apr-18 12:28N 48°41' W 123°25'0 0.0
2018-Apr-18 11:58N 48°41' W 123°25'0 0.0
2018-Apr-18 11:28N 48°41' W 123°25'0 0.0
2018-Apr-18 10:58N 48°41' W 123°25'0 0.0
2018-Apr-18 10:28N 48°41' W 123°25'0 0.0
2018-Apr-18 09:58N 48°41' W 123°25'0 0.0
2018-Apr-18 09:28N 48°41' W 123°25'0 0.0
2018-Apr-18 08:58N 48°41' W 123°25'0 0.0
2018-Apr-18 08:28N 48°41' W 123°25'0 0.0
2018-Apr-18 07:58N 48°41' W 123°25'0 0.0
2018-Apr-18 07:28N 48°41' W 123°25'0 0.0
2018-Apr-18 06:58N 48°41' W 123°25'0 0.0
2018-Apr-18 06:28N 48°41' W 123°25'0 0.0
2018-Apr-18 05:58N 48°41' W 123°25'0 0.0
2018-Apr-18 05:30N 48°41' W 123°25'713.4
2018-Apr-18 05:00N 48°48' W 123°21'816.8
2018-Apr-18 04:30N 48°55' W 123°16'713.3
2018-Apr-18 03:58N 49°00' W 123°08'0 0.2
2018-Apr-18 03:30N 49°00' W 123°08'917.4
2018-Apr-18 03:00N 48°53' W 123°17'714.6
2018-Apr-18 02:31N 48°47' W 123°21'612.1
2018-Apr-18 02:00N 48°41' W 123°25'0 0.5
2018-Apr-18 01:31N 48°41' W 123°24'815.8
2018-Apr-18 01:00N 48°49' W 123°21'815.5
2018-Apr-18 00:30N 48°56' W 123°15'611.8
2018-Apr-17 23:58N 49°00' W 123°08'0 0.1
2018-Apr-17 23:30N 49°00' W 123°08'918.0
2018-Apr-17 23:00N 48°54' W 123°17'817.0
2018-Apr-17 22:31N 48°46' W 123°22'5 9.4
2018-Apr-17 22:00N 48°41' W 123°25'1 2.6
2018-Apr-17 21:31N 48°42' W 123°23'918.3
2018-Apr-17 21:00N 48°51' W 123°21'612.6
2018-Apr-17 20:30N 48°55' W 123°15'713.4
2018-Apr-17 20:00N 49°00' W 123°08'0 0.1
2018-Apr-17 19:30N 49°00' W 123°08'815.8
2018-Apr-17 19:00N 48°54' W 123°16'713.8
2018-Apr-17 18:30N 48°48' W 123°21'714.3
2018-Apr-17 18:00N 48°41' W 123°25'0 0.0
2018-Apr-17 17:30N 48°41' W 123°25'713.7
2018-Apr-17 17:00N 48°48' W 123°21'917.0
2018-Apr-17 16:30N 48°56' W 123°15'713.8
2018-Apr-17 16:00N 49°00' W 123°08'0 0.1
2018-Apr-17 15:30N 49°00' W 123°08'916.4
2018-Apr-17 14:59N 48°54' W 123°16'713.2
2018-Apr-17 14:28N 48°48' W 123°21'714.5
2018-Apr-17 14:00N 48°41' W 123°25'0 0.1
2018-Apr-17 13:30N 48°41' W 123°25'0 0.0
2018-Apr-17 13:00N 48°41' W 123°25'0 0.0
2018-Apr-17 12:30N 48°41' W 123°25'0 0.0
2018-Apr-17 11:55N 48°41' W 123°25'0 0.0
2018-Apr-17 11:28N 48°41' W 123°25'0 0.0
2018-Apr-17 10:58N 48°41' W 123°25'0 0.0
2018-Apr-17 10:25N 48°41' W 123°25'0 0.0
2018-Apr-17 09:58N 48°41' W 123°25'0 0.0
2018-Apr-17 09:28N 48°41' W 123°25'0 0.0
2018-Apr-17 08:58N 48°41' W 123°25'0 0.0
2018-Apr-17 08:28N 48°41' W 123°25'0 0.0
2018-Apr-17 07:58N 48°41' W 123°25'0 0.0
2018-Apr-17 07:28N 48°41' W 123°25'0 0.0
2018-Apr-17 06:58N 48°41' W 123°25'0 0.0
2018-Apr-17 06:28N 48°41' W 123°25'0 0.0
2018-Apr-17 05:58N 48°41' W 123°25'0 0.0
2018-Apr-17 05:30N 48°41' W 123°25'613.0
2018-Apr-17 05:00N 48°47' W 123°21'816.4
2018-Apr-17 04:30N 48°55' W 123°16'715.0
2018-Apr-17 04:00N 49°00' W 123°08'0 0.0
2018-Apr-17 03:31N 49°00' W 123°08'816.0
2018-Apr-17 02:59N 48°54' W 123°16'714.5
2018-Apr-17 02:29N 48°47' W 123°21'613.1
2018-Apr-17 01:59N 48°41' W 123°25'0 0.1
2018-Apr-17 01:30N 48°41' W 123°25'815.0
2018-Apr-17 01:00N 48°48' W 123°21'815.2
2018-Apr-17 00:30N 48°55' W 123°15'713.9
2018-Apr-17 00:00N 49°00' W 123°08'0 0.1
2018-Apr-16 23:31N 49°00' W 123°08'814.6
2018-Apr-16 23:00N 48°55' W 123°15'816.2
2018-Apr-16 22:30N 48°47' W 123°21'713.3
2018-Apr-16 22:00N 48°41' W 123°25'0 0.2
2018-Apr-16 21:30N 48°41' W 123°25'815.6
2018-Apr-16 21:00N 48°49' W 123°21'713.7
2018-Apr-16 20:30N 48°55' W 123°16'715.2
2018-Apr-16 20:00N 49°00' W 123°08'0 0.0
2018-Apr-16 19:30N 49°00' W 123°08'816.4
2018-Apr-16 19:00N 48°54' W 123°16'713.8
2018-Apr-16 18:30N 48°48' W 123°21'714.0
2018-Apr-16 18:00N 48°41' W 123°25'0 0.0
2018-Apr-16 17:31N 48°41' W 123°25'714.2
2018-Apr-16 17:00N 48°48' W 123°21'815.4
2018-Apr-16 16:30N 48°55' W 123°16'714.2
2018-Apr-16 15:59N 49°00' W 123°08'0 0.0
2018-Apr-16 15:31N 49°00' W 123°08'917.5
2018-Apr-16 15:00N 48°53' W 123°17'714.1
2018-Apr-16 14:30N 48°47' W 123°21'612.5
2018-Apr-16 14:00N 48°41' W 123°25'0 0.0
2018-Apr-16 13:30N 48°41' W 123°25'0 0.0
2018-Apr-16 12:55N 48°41' W 123°25'0 0.0
2018-Apr-16 12:28N 48°41' W 123°25'0 0.0
2018-Apr-16 11:55N 48°41' W 123°25'0 0.0
2018-Apr-16 11:28N 48°41' W 123°25'0 0.0
2018-Apr-16 10:55N 48°41' W 123°25'0 0.0
2018-Apr-16 10:25N 48°41' W 123°25'0 0.0
2018-Apr-16 09:55N 48°41' W 123°25'0 0.0
2018-Apr-16 09:28N 48°41' W 123°25'0 0.0
2018-Apr-16 08:58N 48°41' W 123°25'0 0.0
2018-Apr-16 08:28N 48°41' W 123°25'0 0.0
2018-Apr-16 07:58N 48°41' W 123°25'0 0.0
2018-Apr-16 07:28N 48°41' W 123°25'0 0.0
2018-Apr-16 06:58N 48°41' W 123°25'0 0.0
2018-Apr-16 06:28N 48°41' W 123°25'0 0.0
2018-Apr-16 05:58N 48°41' W 123°25'0 0.0
2018-Apr-16 05:30N 48°41' W 123°25'713.6
2018-Apr-16 05:00N 48°48' W 123°21'917.2
2018-Apr-16 04:30N 48°56' W 123°15'713.6
2018-Apr-16 04:00N 49°00' W 123°08'0 0.7
2018-Apr-16 03:30N 49°00' W 123°08'815.4
2018-Apr-16 03:00N 48°54' W 123°16'714.2
2018-Apr-16 02:30N 48°48' W 123°21'713.9
2018-Apr-16 02:00N 48°41' W 123°25'0 0.6
2018-Apr-16 01:30N 48°41' W 123°24'917.3
2018-Apr-16 01:00N 48°50' W 123°21'816.9
2018-Apr-16 00:30N 48°57' W 123°13'510.0
2018-Apr-16 00:00N 49°00' W 123°08'0 0.2
2018-Apr-15 23:30N 49°00' W 123°08'918.4
2018-Apr-15 22:59N 48°53' W 123°17'816.2
2018-Apr-15 22:30N 48°45' W 123°21'5 9.8
2018-Apr-15 22:00N 48°41' W 123°25'1 1.2
2018-Apr-15 21:30N 48°42' W 123°24'917.5
2018-Apr-15 20:59N 48°51' W 123°21'715.3
2018-Apr-15 20:30N 48°56' W 123°14'611.7
2018-Apr-15 20:00N 49°00' W 123°08'1 2.2
2018-Apr-15 19:30N 48°59' W 123°09'1020.0
2018-Apr-15 19:00N 48°52' W 123°18'815.8
2018-Apr-15 18:30N 48°45' W 123°23'4 7.0
2018-Apr-15 18:00N 48°41' W 123°25'1 1.9
2018-Apr-15 17:30N 48°42' W 123°23'1019.0
2018-Apr-15 17:00N 48°51' W 123°21'918.9
2018-Apr-15 16:30N 48°58' W 123°12'3 6.9
2018-Apr-15 16:01N 49°00' W 123°08'1 1.9
2018-Apr-15 15:30N 48°60' W 123°09'916.2
2018-Apr-15 14:59N 48°53' W 123°17'611.8
2018-Apr-15 14:30N 48°48' W 123°20'714.4
2018-Apr-15 14:00N 48°41' W 123°25'0 0.0
2018-Apr-15 13:30N 48°41' W 123°25'0 0.0
2018-Apr-15 12:52N 48°41' W 123°25'0 0.0
2018-Apr-15 12:28N 48°41' W 123°25'0 0.0
2018-Apr-15 11:58N 48°41' W 123°25'0 0.0
2018-Apr-15 11:25N 48°41' W 123°25'0 0.0
2018-Apr-15 10:55N 48°41' W 123°25'0 0.0
2018-Apr-15 10:28N 48°41' W 123°25'0 0.0
2018-Apr-15 09:58N 48°41' W 123°25'0 0.0
2018-Apr-15 09:28N 48°41' W 123°25'0 0.0
2018-Apr-15 08:55N 48°41' W 123°25'0 0.0
2018-Apr-15 08:28N 48°41' W 123°25'0 0.0
2018-Apr-15 07:58N 48°41' W 123°25'0 0.0
2018-Apr-15 07:28N 48°41' W 123°25'0 0.0
2018-Apr-15 06:58N 48°41' W 123°25'0 0.0
2018-Apr-15 06:28N 48°41' W 123°25'0 0.0
2018-Apr-15 05:58N 48°41' W 123°25'0 0.0
2018-Apr-15 05:30N 48°41' W 123°25'612.3
2018-Apr-15 05:01N 48°47' W 123°21'816.0
2018-Apr-15 04:30N 48°54' W 123°16'815.8
2018-Apr-15 04:00N 49°00' W 123°08'0 0.2
2018-Apr-15 03:30N 49°00' W 123°08'815.8
2018-Apr-15 03:00N 48°54' W 123°16'  
Track history (hours):
 
Tides and Currents Weather Stations Pressure Air Temp Water Temp Dewpoint Dewpoint Depression Visibility Wind Speed Wind Dir Waves Ship Positions

Spirit Of Vi

Last reported at 2018-Apr-25 02:31 UTC. Time now 2018-Apr-25 02:36 UTC.
Position N 48°44' W 123°24'.

Length 168 m; draft 5 m.

Type: Ship. MMSI: 316001269.

Date/timePositionNaut miles runAvg speedWind from/ knotsBaromVisibWave heightAir tempDewpointWater temp
2018-Apr-25 02:31N 48°44' W 123°24'3 5.1
2018-Apr-25 02:00N 48°41' W 123°25'1 1.9
2018-Apr-25 01:31N 48°42' W 123°23'918.4
2018-Apr-25 01:01N 48°51' W 123°21'918.1
2018-Apr-25 00:30N 48°58' W 123°12'4 7.9
2018-Apr-25 00:00N 49°00' W 123°08'0 0.6
2018-Apr-24 23:30N 49°00' W 123°08'918.0
2018-Apr-24 23:00N 48°53' W 123°17'713.9
2018-Apr-24 22:30N 48°47' W 123°21'611.8
2018-Apr-24 22:00N 48°41' W 123°25'0 0.0
2018-Apr-24 21:31N 48°41' W 123°25'713.5
2018-Apr-24 21:00N 48°48' W 123°21'816.6
2018-Apr-24 20:30N 48°55' W 123°15'713.1
2018-Apr-24 19:58N 49°00' W 123°08'0 0.0
2018-Apr-24 19:31N 49°00' W 123°08'917.3
2018-Apr-24 18:58N 48°53' W 123°17'715.9
2018-Apr-24 18:30N 48°46' W 123°21'511.0
2018-Apr-24 18:00N 48°41' W 123°25'0 0.0
2018-Apr-24 17:30N 48°41' W 123°25'814.7
2018-Apr-24 16:59N 48°48' W 123°21'714.1
2018-Apr-24 16:30N 48°55' W 123°16'815.6
2018-Apr-24 16:00N 49°00' W 123°08'0 0.0
2018-Apr-24 15:30N 49°00' W 123°08'715.0
2018-Apr-24 15:00N 48°55' W 123°15'814.9
2018-Apr-24 14:30N 48°48' W 123°21'714.3
2018-Apr-24 14:01N 48°41' W 123°25'0 0.1
2018-Apr-24 13:30N 48°41' W 123°25'0 0.0
2018-Apr-24 12:58N 48°41' W 123°25'0 0.0
2018-Apr-24 12:28N 48°41' W 123°25'0 0.0
2018-Apr-24 11:58N 48°41' W 123°25'0 0.0
2018-Apr-24 11:28N 48°41' W 123°25'0 0.0
2018-Apr-24 10:58N 48°41' W 123°25'0 0.0
2018-Apr-24 10:28N 48°41' W 123°25'0 0.0
2018-Apr-24 09:58N 48°41' W 123°25'0 0.0
2018-Apr-24 09:28N 48°41' W 123°25'0 0.0
2018-Apr-24 08:58N 48°41' W 123°25'0 0.0
2018-Apr-24 08:28N 48°41' W 123°25'0 0.0
2018-Apr-24 07:58N 48°41' W 123°25'0 0.0
2018-Apr-24 07:28N 48°41' W 123°25'0 0.0
2018-Apr-24 06:58N 48°41' W 123°25'0 0.0
2018-Apr-24 06:28N 48°41' W 123°25'0 0.0
2018-Apr-24 05:58N 48°41' W 123°25'0 0.0
2018-Apr-24 05:29N 48°41' W 123°25'714.2
2018-Apr-24 05:00N 48°48' W 123°21'713.9
2018-Apr-24 04:30N 48°54' W 123°17'816.8
2018-Apr-24 04:00N 49°00' W 123°08'0 0.0
2018-Apr-24 03:30N 49°00' W 123°08'815.3
2018-Apr-24 03:00N 48°54' W 123°15'815.7
2018-Apr-24 02:30N 48°48' W 123°21'712.8
2018-Apr-24 01:59N 48°41' W 123°25'0 0.0
2018-Apr-24 01:31N 48°41' W 123°25'714.5
2018-Apr-24 01:01N 48°48' W 123°21'816.0
2018-Apr-24 00:30N 48°55' W 123°15'713.5
2018-Apr-24 00:00N 49°00' W 123°08'0 0.1
2018-Apr-23 23:30N 49°00' W 123°08'917.4
2018-Apr-23 23:00N 48°54' W 123°17'714.1
2018-Apr-23 22:31N 48°47' W 123°21'612.7
2018-Apr-23 22:00N 48°41' W 123°25'0 0.2
2018-Apr-23 21:30N 48°41' W 123°25'816.6
2018-Apr-23 21:00N 48°49' W 123°21'917.2
2018-Apr-23 20:30N 48°57' W 123°14'510.4
2018-Apr-23 20:00N 49°00' W 123°08'1 1.3
2018-Apr-23 19:30N 48°60' W 123°09'918.2
2018-Apr-23 19:00N 48°53' W 123°18'715.0
2018-Apr-23 18:31N 48°46' W 123°22'510.0
2018-Apr-23 18:00N 48°41' W 123°25'0 0.3
2018-Apr-23 17:30N 48°41' W 123°25'815.2
2018-Apr-23 17:00N 48°49' W 123°21'815.9
2018-Apr-23 16:30N 48°56' W 123°15'611.3
2018-Apr-23 15:56N 49°00' W 123°08'0 0.0
2018-Apr-23 15:30N 49°00' W 123°08'816.6
2018-Apr-23 15:00N 48°54' W 123°16'715.1
2018-Apr-23 14:31N 48°47' W 123°21'612.3
2018-Apr-23 14:00N 48°41' W 123°25'0 0.0
2018-Apr-23 13:30N 48°41' W 123°25'0 0.0
2018-Apr-23 13:00N 48°41' W 123°25'0 0.0
2018-Apr-23 12:29N 48°41' W 123°25'0 0.0
2018-Apr-23 11:59N 48°41' W 123°25'0 0.0
2018-Apr-23 11:29N 48°41' W 123°25'0 0.0
2018-Apr-23 10:59N 48°41' W 123°25'0 0.0
2018-Apr-23 10:29N 48°41' W 123°25'0 0.0
2018-Apr-23 09:59N 48°41' W 123°25'0 0.0
2018-Apr-23 09:29N 48°41' W 123°25'0 0.0
2018-Apr-23 08:59N 48°41' W 123°25'0 0.0
2018-Apr-23 08:29N 48°41' W 123°25'0 0.0
2018-Apr-23 07:59N 48°41' W 123°25'0 0.0
2018-Apr-23 07:29N 48°41' W 123°25'0 0.0
2018-Apr-23 06:59N 48°41' W 123°25'0 0.0
2018-Apr-23 06:29N 48°41' W 123°25'0 0.0
2018-Apr-23 05:59N 48°41' W 123°25'0 0.0
2018-Apr-23 05:31N 48°41' W 123°25'714.5
2018-Apr-23 05:00N 48°48' W 123°21'814.6
2018-Apr-23 04:30N 48°55' W 123°16'715.4
2018-Apr-23 04:00N 49°00' W 123°08'0 0.0
2018-Apr-23 03:30N 49°00' W 123°08'815.6
2018-Apr-23 03:00N 48°54' W 123°15'816.7
2018-Apr-23 02:30N 48°47' W 123°21'612.2
2018-Apr-23 02:00N 48°41' W 123°25'0 0.4
2018-Apr-23 01:31N 48°41' W 123°24'917.1
2018-Apr-23 01:00N 48°50' W 123°21'714.9
2018-Apr-23 00:31N 48°56' W 123°15'612.1
2018-Apr-23 00:00N 49°00' W 123°08'0 0.0
2018-Apr-22 23:30N 49°00' W 123°08'917.2
2018-Apr-22 23:00N 48°54' W 123°16'714.7
2018-Apr-22 22:30N 48°47' W 123°21'612.2
2018-Apr-22 22:00N 48°41' W 123°25'0 0.0
2018-Apr-22 21:31N 48°41' W 123°25'713.4
2018-Apr-22 21:00N 48°48' W 123°21'816.7
2018-Apr-22 20:31N 48°55' W 123°15'714.2
2018-Apr-22 20:00N 49°00' W 123°08'0 0.1
2018-Apr-22 19:30N 49°00' W 123°08'917.9
2018-Apr-22 19:00N 48°53' W 123°17'714.1
2018-Apr-22 18:30N 48°47' W 123°21'612.3
2018-Apr-22 18:01N 48°41' W 123°25'0 0.2
2018-Apr-22 17:31N 48°41' W 123°25'815.3
2018-Apr-22 17:01N 48°49' W 123°21'815.7
2018-Apr-22 16:30N 48°56' W 123°15'713.4
2018-Apr-22 16:00N 49°00' W 123°08'1 2.2
2018-Apr-22 15:30N 48°59' W 123°09'611.7
2018-Apr-22 15:00N 48°55' W 123°14'815.9
2018-Apr-22 14:30N 48°48' W 123°21'714.6
2018-Apr-22 14:00N 48°41' W 123°25'0 0.0
2018-Apr-22 13:30N 48°41' W 123°25'0 0.0
2018-Apr-22 13:00N 48°41' W 123°25'0 0.0
2018-Apr-22 12:29N 48°41' W 123°25'0 0.0
2018-Apr-22 11:59N 48°41' W 123°25'0 0.0
2018-Apr-22 11:26N 48°41' W 123°25'0 0.0
2018-Apr-22 10:59N 48°41' W 123°25'0 0.0
2018-Apr-22 10:29N 48°41' W 123°25'0 0.0
2018-Apr-22 09:59N 48°41' W 123°25'0 0.0
2018-Apr-22 09:26N 48°41' W 123°25'0 0.0
2018-Apr-22 08:59N 48°41' W 123°25'0 0.0
2018-Apr-22 08:29N 48°41' W 123°25'0 0.0
2018-Apr-22 07:59N 48°41' W 123°25'0 0.0
2018-Apr-22 07:29N 48°41' W 123°25'0 0.0
2018-Apr-22 06:59N 48°41' W 123°25'0 0.0
2018-Apr-22 06:29N 48°41' W 123°25'0 0.0
2018-Apr-22 05:59N 48°41' W 123°25'0 0.1
2018-Apr-22 05:31N 48°41' W 123°25'714.4
2018-Apr-22 05:00N 48°48' W 123°21'815.1
2018-Apr-22 04:30N 48°55' W 123°16'715.1
2018-Apr-22 04:00N 49°00' W 123°08'0 0.0
2018-Apr-22 03:30N 49°00' W 123°08'714.4
2018-Apr-22 03:00N 48°55' W 123°15'816.4
2018-Apr-22 02:30N 48°47' W 123°20'713.3
2018-Apr-22 02:00N 48°41' W 123°25'0 0.1
2018-Apr-22 01:30N 48°41' W 123°25'815.0
2018-Apr-22 01:00N 48°48' W 123°21'714.2
2018-Apr-22 00:30N 48°55' W 123°16'815.1
2018-Apr-22 00:00N 49°00' W 123°08'0 0.0
2018-Apr-21 23:30N 49°00' W 123°08'815.3
2018-Apr-21 23:00N 48°54' W 123°15'714.3
2018-Apr-21 22:30N 48°48' W 123°21'714.8
2018-Apr-21 22:01N 48°41' W 123°25'0 0.0
2018-Apr-21 21:31N 48°41' W 123°25'612.9
2018-Apr-21 21:00N 48°47' W 123°21'816.3
2018-Apr-21 20:29N 48°55' W 123°15'715.1
2018-Apr-21 20:00N 49°00' W 123°08'0 0.3
2018-Apr-21 19:30N 49°00' W 123°08'917.8
2018-Apr-21 19:00N 48°53' W 123°17'714.5
2018-Apr-21 18:30N 48°47' W 123°21'611.3
2018-Apr-21 17:59N 48°41' W 123°25'0 0.2
2018-Apr-21 17:31N 48°41' W 123°25'714.0
2018-Apr-21 17:01N 48°48' W 123°21'816.0
2018-Apr-21 16:31N 48°55' W 123°15'714.0
2018-Apr-21 16:00N 49°00' W 123°08'0 0.0
2018-Apr-21 15:31N 49°00' W 123°08'714.5
2018-Apr-21 15:00N 48°55' W 123°15'816.1
2018-Apr-21 14:30N 48°48' W 123°21'711.3
2018-Apr-21 13:55N 48°41' W 123°25'0 0.0
2018-Apr-21 13:28N 48°41' W 123°25'0 0.0
2018-Apr-21 12:55N 48°41' W 123°25'0 0.0
2018-Apr-21 12:28N 48°41' W 123°25'0 0.0
2018-Apr-21 11:52N 48°41' W 123°25'0 0.0
2018-Apr-21 11:28N 48°41' W 123°25'0 0.0
2018-Apr-21 10:58N 48°41' W 123°25'0 0.0
2018-Apr-21 10:28N 48°41' W 123°25'0 0.0
2018-Apr-21 09:55N 48°41' W 123°25'0 0.0
2018-Apr-21 09:25N 48°41' W 123°25'0 0.0
2018-Apr-21 08:58N 48°41' W 123°25'0 0.0
2018-Apr-21 08:28N 48°41' W 123°25'0 0.0
2018-Apr-21 07:58N 48°41' W 123°25'0 0.0
2018-Apr-21 07:28N 48°41' W 123°25'0 0.0
2018-Apr-21 06:58N 48°41' W 123°25'0 0.0
2018-Apr-21 06:28N 48°41' W 123°25'0 0.0
2018-Apr-21 05:58N 48°41' W 123°25'0 0.0
2018-Apr-21 05:30N 48°41' W 123°25'714.6
2018-Apr-21 05:00N 48°48' W 123°21'815.3
2018-Apr-21 04:31N 48°55' W 123°16'714.9
2018-Apr-21 04:00N 49°00' W 123°08'0 0.1
2018-Apr-21 03:30N 49°00' W 123°08'814.8
2018-Apr-21 02:59N 48°54' W 123°15'816.3
2018-Apr-21 02:30N 48°47' W 123°21'713.2
2018-Apr-21 02:00N 48°41' W 123°25'0 0.4
2018-Apr-21 01:30N 48°41' W 123°24'816.5
2018-Apr-21 01:01N 48°49' W 123°21'814.7
2018-Apr-21 00:30N 48°56' W 123°15'613.0
2018-Apr-21 00:00N 49°00' W 123°08'0 0.0
2018-Apr-20 23:29N 49°00' W 123°08'815.8
2018-Apr-20 23:00N 48°54' W 123°15'816.2
2018-Apr-20 22:30N 48°47' W 123°21'612.2
2018-Apr-20 21:59N 48°41' W 123°25'0 0.1
2018-Apr-20 21:31N 48°41' W 123°25'815.5
2018-Apr-20 21:00N 48°49' W 123°21'816.2
2018-Apr-20 20:30N 48°56' W 123°15'612.0
2018-Apr-20 19:59N 49°00' W 123°08'0 0.3
2018-Apr-20 19:31N 49°00' W 123°08'918.0
2018-Apr-20 19:00N 48°53' W 123°17'612.8
2018-Apr-20 18:30N 48°47' W 123°21'713.0
2018-Apr-20 18:00N 48°41' W 123°25'0 0.0
2018-Apr-20 17:31N 48°41' W 123°25'713.0
2018-Apr-20 17:00N 48°47' W 123°21'816.1
2018-Apr-20 16:30N 48°55' W 123°16'815.3
2018-Apr-20 16:00N 49°00' W 123°08'0 0.1
2018-Apr-20 15:30N 49°00' W 123°08'917.4
2018-Apr-20 15:00N 48°54' W 123°16'815.8
2018-Apr-20 14:30N 48°46' W 123°21'611.0
2018-Apr-20 14:00N 48°41' W 123°25'0 0.0
2018-Apr-20 13:30N 48°41' W 123°25'0 0.0
2018-Apr-20 12:59N 48°41' W 123°25'0 0.0
2018-Apr-20 12:29N 48°41' W 123°25'0 0.0
2018-Apr-20 11:59N 48°41' W 123°25'0 0.0
2018-Apr-20 11:26N 48°41' W 123°25'0 0.0
2018-Apr-20 10:59N 48°41' W 123°25'0 0.0
2018-Apr-20 10:29N 48°41' W 123°25'0 0.0
2018-Apr-20 09:59N 48°41' W 123°25'0 0.0
2018-Apr-20 09:29N 48°41' W 123°25'0 0.0
2018-Apr-20 08:59N 48°41' W 123°25'0 0.0
2018-Apr-20 08:29N 48°41' W 123°25'0 0.0
2018-Apr-20 07:59N 48°41' W 123°25'0 0.0
2018-Apr-20 07:29N 48°41' W 123°25'0 0.0
2018-Apr-20 06:59N 48°41' W 123°25'0 0.0
2018-Apr-20 06:29N 48°41' W 123°25'0 0.0
2018-Apr-20 05:59N 48°41' W 123°25'0 0.3
2018-Apr-20 05:30N 48°41' W 123°25'815.7
2018-Apr-20 05:00N 48°49' W 123°21'917.3
2018-Apr-20 04:30N 48°56' W 123°14'611.1
2018-Apr-20 04:00N 49°00' W 123°08'2 4.2
2018-Apr-20 03:30N 48°59' W 123°10'1019.1
2018-Apr-20 03:00N 48°51' W 123°19'816.8
2018-Apr-20 02:31N 48°44' W 123°24'2 4.8
2018-Apr-20 02:00N 48°41' W 123°25'1 3.0
2018-Apr-20 01:31N 48°42' W 123°23'917.1
2018-Apr-20 00:58N 48°51' W 123°21'715.8
2018-Apr-20 00:30N 48°56' W 123°14'611.1
2018-Apr-20 00:00N 49°00' W 123°08'0 0.0
2018-Apr-19 23:30N 49°00' W 123°08'815.4
2018-Apr-19 22:59N 48°54' W 123°16'815.8
2018-Apr-19 22:30N 48°47' W 123°21'612.9
2018-Apr-19 22:00N 48°41' W 123°25'0 0.0
2018-Apr-19 21:30N 48°41' W 123°25'714.2
2018-Apr-19 21:00N 48°48' W 123°21'815.8
2018-Apr-19 20:30N 48°55' W 123°16'713.6
2018-Apr-19 19:59N 49°00' W 123°08'0 0.1
2018-Apr-19 19:30N 49°00' W 123°08'918.0
2018-Apr-19 19:00N 48°53' W 123°17'714.0
2018-Apr-19 18:30N 48°47' W 123°21'612.2
2018-Apr-19 18:00N 48°41' W 123°25'0 1.0
2018-Apr-19 17:30N 48°42' W 123°24'917.4
2018-Apr-19 16:58N 48°51' W 123°21'714.4
2018-Apr-19 16:30N 48°56' W 123°15'612.8
2018-Apr-19 16:00N 49°00' W 123°08'0 0.2
2018-Apr-19 15:30N 49°00' W 123°08'918.2
2018-Apr-19 15:01N 48°53' W 123°17'714.7
2018-Apr-19 14:31N 48°47' W 123°21'611.4
2018-Apr-19 14:01N 48°41' W 123°25'0 0.0
2018-Apr-19 13:31N 48°41' W 123°25'0 0.0
2018-Apr-19 12:59N 48°41' W 123°25'0 0.0
2018-Apr-19 12:29N 48°41' W 123°25'0 0.0
2018-Apr-19 11:59N 48°41' W 123°25'0 0.0
2018-Apr-19 11:29N 48°41' W 123°25'0 0.0
2018-Apr-19 10:59N 48°41' W 123°25'0 0.0
2018-Apr-19 10:29N 48°41' W 123°25'0 0.0
2018-Apr-19 09:59N 48°41' W 123°25'0 0.0
2018-Apr-19 09:29N 48°41' W 123°25'0 0.0
2018-Apr-19 08:59N 48°41' W 123°25'0 0.0
2018-Apr-19 08:29N 48°41' W 123°25'0 0.0
2018-Apr-19 07:59N 48°41' W 123°25'0 0.0
2018-Apr-19 07:26N 48°41' W 123°25'0 0.0
2018-Apr-19 06:56N 48°41' W 123°25'0 0.0
2018-Apr-19 06:23N 48°41' W 123°25'0 0.0
2018-Apr-19 05:59N 48°41' W 123°25'0 0.7
2018-Apr-19 05:31N 48°42' W 123°24'816.8
2018-Apr-19 05:01N 48°50' W 123°21'917.6
2018-Apr-19 04:30N 48°57' W 123°13'5 9.8
2018-Apr-19 04:00N 49°00' W 123°08'4 7.2
2018-Apr-19 03:30N 48°57' W 123°11'917.9
2018-Apr-19 03:01N 48°51' W 123°21'917.9
2018-Apr-19 02:31N 48°43' W 123°26'2 3.5
2018-Apr-19 02:00N 48°41' W 123°25'3 6.7
2018-Apr-19 01:31N 48°43' W 123°21'816.3
2018-Apr-19 01:00N 48°52' W 123°20'917.7
2018-Apr-19 00:30N 48°58' W 123°11'3 5.6
2018-Apr-19 00:01N 49°00' W 123°08'1 1.7
2018-Apr-18 23:30N 48°60' W 123°09'1020.0
2018-Apr-18 23:00N 48°52' W 123°18'816.5
2018-Apr-18 22:31N 48°44' W 123°23'3 6.3
2018-Apr-18 22:00N 48°41' W 123°25'0 0.6
2018-Apr-18 21:31N 48°41' W 123°24'917.1
2018-Apr-18 21:01N 48°50' W 123°21'713.0
2018-Apr-18 20:30N 48°55' W 123°15'714.1
2018-Apr-18 20:00N 49°00' W 123°08'0 0.0
2018-Apr-18 19:30N 49°00' W 123°08'816.7
2018-Apr-18 19:00N 48°54' W 123°16'713.8
2018-Apr-18 18:30N 48°48' W 123°21'713.6
2018-Apr-18 18:00N 48°41' W 123°25'0 0.1
2018-Apr-18 17:31N 48°41' W 123°25'815.8
2018-Apr-18 17:01N 48°49' W 123°21'814.9
2018-Apr-18 16:30N 48°55' W 123°15'713.7
2018-Apr-18 16:00N 49°00' W 123°08'0 0.2
2018-Apr-18 15:31N 49°00' W 123°08'916.8
2018-Apr-18 15:00N 48°54' W 123°16'713.5
2018-Apr-18 14:30N 48°48' W 123°21'713.7
2018-Apr-18 14:00N 48°41' W 123°25'0 0.0
2018-Apr-18 13:30N 48°41' W 123°25'0 0.0
2018-Apr-18 12:58N 48°41' W 123°25'0 0.0
2018-Apr-18 12:28N 48°41' W 123°25'0 0.0
2018-Apr-18 11:58N 48°41' W 123°25'0 0.0
2018-Apr-18 11:28N 48°41' W 123°25'0 0.0
2018-Apr-18 10:58N 48°41' W 123°25'0 0.0
2018-Apr-18 10:28N 48°41' W 123°25'0 0.0
2018-Apr-18 09:58N 48°41' W 123°25'0 0.0
2018-Apr-18 09:28N 48°41' W 123°25'0 0.0
2018-Apr-18 08:58N 48°41' W 123°25'0 0.0
2018-Apr-18 08:28N 48°41' W 123°25'0 0.0
2018-Apr-18 07:58N 48°41' W 123°25'0 0.0
2018-Apr-18 07:28N 48°41' W 123°25'0 0.0
2018-Apr-18 06:58N 48°41' W 123°25'0 0.0
2018-Apr-18 06:28N 48°41' W 123°25'0 0.0
2018-Apr-18 05:58N 48°41' W 123°25'0 0.0
2018-Apr-18 05:30N 48°41' W 123°25'713.4
2018-Apr-18 05:00N 48°48' W 123°21'816.8
2018-Apr-18 04:30N 48°55' W 123°16'713.3
2018-Apr-18 03:58N 49°00' W 123°08'0 0.2
2018-Apr-18 03:30N 49°00' W 123°08'917.4
2018-Apr-18 03:00N 48°53' W 123°17'714.6
2018-Apr-18 02:31N 48°47' W 123°21'612.1
2018-Apr-18 02:00N 48°41' W 123°25'0 0.5
2018-Apr-18 01:31N 48°41' W 123°24'815.8
2018-Apr-18 01:00N 48°49' W 123°21'815.5
2018-Apr-18 00:30N 48°56' W 123°15'611.8
2018-Apr-17 23:58N 49°00' W 123°08'0 0.1
2018-Apr-17 23:30N 49°00' W 123°08'918.0
2018-Apr-17 23:00N 48°54' W 123°17'817.0
2018-Apr-17 22:31N 48°46' W 123°22'5 9.4
2018-Apr-17 22:00N 48°41' W 123°25'1 2.6
2018-Apr-17 21:31N 48°42' W 123°23'918.3
2018-Apr-17 21:00N 48°51' W 123°21'612.6
2018-Apr-17 20:30N 48°55' W 123°15'713.4
2018-Apr-17 20:00N 49°00' W 123°08'0 0.1
2018-Apr-17 19:30N 49°00' W 123°08'815.8
2018-Apr-17 19:00N 48°54' W 123°16'713.8
2018-Apr-17 18:30N 48°48' W 123°21'714.3
2018-Apr-17 18:00N 48°41' W 123°25'0 0.0
2018-Apr-17 17:30N 48°41' W 123°25'713.7
2018-Apr-17 17:00N 48°48' W 123°21'917.0
2018-Apr-17 16:30N 48°56' W 123°15'713.8
2018-Apr-17 16:00N 49°00' W 123°08'0 0.1
2018-Apr-17 15:30N 49°00' W 123°08'916.4
2018-Apr-17 14:59N 48°54' W 123°16'713.2
2018-Apr-17 14:28N 48°48' W 123°21'714.5
2018-Apr-17 14:00N 48°41' W 123°25'0 0.1
2018-Apr-17 13:30N 48°41' W 123°25'0 0.0
2018-Apr-17 13:00N 48°41' W 123°25'0 0.0
2018-Apr-17 12:30N 48°41' W 123°25'0 0.0
2018-Apr-17 11:55N 48°41' W 123°25'0 0.0
2018-Apr-17 11:28N 48°41' W 123°25'0 0.0
2018-Apr-17 10:58N 48°41' W 123°25'0 0.0
2018-Apr-17 10:25N 48°41' W 123°25'0 0.0
2018-Apr-17 09:58N 48°41' W 123°25'0 0.0
2018-Apr-17 09:28N 48°41' W 123°25'0 0.0
2018-Apr-17 08:58N 48°41' W 123°25'0 0.0
2018-Apr-17 08:28N 48°41' W 123°25'0 0.0
2018-Apr-17 07:58N 48°41' W 123°25'0 0.0
2018-Apr-17 07:28N 48°41' W 123°25'0 0.0
2018-Apr-17 06:58N 48°41' W 123°25'0 0.0
2018-Apr-17 06:28N 48°41' W 123°25'0 0.0
2018-Apr-17 05:58N 48°41' W 123°25'0 0.0
2018-Apr-17 05:30N 48°41' W 123°25'613.0
2018-Apr-17 05:00N 48°47' W 123°21'816.4
2018-Apr-17 04:30N 48°55' W 123°16'715.0
2018-Apr-17 04:00N 49°00' W 123°08'0 0.0
2018-Apr-17 03:31N 49°00' W 123°08'816.0
2018-Apr-17 02:59N 48°54' W 123°16'714.5
2018-Apr-17 02:29N 48°47' W 123°21'613.1
2018-Apr-17 01:59N 48°41' W 123°25'0 0.1
2018-Apr-17 01:30N 48°41' W 123°25'815.0
2018-Apr-17 01:00N 48°48' W 123°21'815.2
2018-Apr-17 00:30N 48°55' W 123°15'713.9
2018-Apr-17 00:00N 49°00' W 123°08'0 0.1
2018-Apr-16 23:31N 49°00' W 123°08'814.6
2018-Apr-16 23:00N 48°55' W 123°15'816.2
2018-Apr-16 22:30N 48°47' W 123°21'713.3
2018-Apr-16 22:00N 48°41' W 123°25'0 0.2
2018-Apr-16 21:30N 48°41' W 123°25'815.6
2018-Apr-16 21:00N 48°49' W 123°21'713.7
2018-Apr-16 20:30N 48°55' W 123°16'715.2
2018-Apr-16 20:00N 49°00' W 123°08'0 0.0
2018-Apr-16 19:30N 49°00' W 123°08'816.4
2018-Apr-16 19:00N 48°54' W 123°16'713.8
2018-Apr-16 18:30N 48°48' W 123°21'714.0
2018-Apr-16 18:00N 48°41' W 123°25'0 0.0
2018-Apr-16 17:31N 48°41' W 123°25'714.2
2018-Apr-16 17:00N 48°48' W 123°21'815.4
2018-Apr-16 16:30N 48°55' W 123°16'714.2
2018-Apr-16 15:59N 49°00' W 123°08'0 0.0
2018-Apr-16 15:31N 49°00' W 123°08'917.5
2018-Apr-16 15:00N 48°53' W 123°17'714.1
2018-Apr-16 14:30N 48°47' W 123°21'612.5
2018-Apr-16 14:00N 48°41' W 123°25'0 0.0
2018-Apr-16 13:30N 48°41' W 123°25'0 0.0
2018-Apr-16 12:55N 48°41' W 123°25'0 0.0
2018-Apr-16 12:28N 48°41' W 123°25'0 0.0
2018-Apr-16 11:55N 48°41' W 123°25'0 0.0
2018-Apr-16 11:28N 48°41' W 123°25'0 0.0
2018-Apr-16 10:55N 48°41' W 123°25'0 0.0
2018-Apr-16 10:25N 48°41' W 123°25'0 0.0
2018-Apr-16 09:55N 48°41' W 123°25'0 0.0
2018-Apr-16 09:28N 48°41' W 123°25'0 0.0
2018-Apr-16 08:58N 48°41' W 123°25'0 0.0
2018-Apr-16 08:28N 48°41' W 123°25'0 0.0
2018-Apr-16 07:58N 48°41' W 123°25'0 0.0
2018-Apr-16 07:28N 48°41' W 123°25'0 0.0
2018-Apr-16 06:58N 48°41' W 123°25'0 0.0
2018-Apr-16 06:28N 48°41' W 123°25'0 0.0
2018-Apr-16 05:58N 48°41' W 123°25'0 0.0
2018-Apr-16 05:30N 48°41' W 123°25'713.6
2018-Apr-16 05:00N 48°48' W 123°21'917.2
2018-Apr-16 04:30N 48°56' W 123°15'713.6
2018-Apr-16 04:00N 49°00' W 123°08'0 0.7
2018-Apr-16 03:30N 49°00' W 123°08'815.4
2018-Apr-16 03:00N 48°54' W 123°16'714.2
2018-Apr-16 02:30N 48°48' W 123°21'713.9
2018-Apr-16 02:00N 48°41' W 123°25'0 0.6
2018-Apr-16 01:30N 48°41' W 123°24'917.3
2018-Apr-16 01:00N 48°50' W 123°21'816.9
2018-Apr-16 00:30N 48°57' W 123°13'510.0
2018-Apr-16 00:00N 49°00' W 123°08'0 0.2
2018-Apr-15 23:30N 49°00' W 123°08'918.4
2018-Apr-15 22:59N 48°53' W 123°17'816.2
2018-Apr-15 22:30N 48°45' W 123°21'5 9.8
2018-Apr-15 22:00N 48°41' W 123°25'1 1.2
2018-Apr-15 21:30N 48°42' W 123°24'917.5
2018-Apr-15 20:59N 48°51' W 123°21'715.3
2018-Apr-15 20:30N 48°56' W 123°14'611.7
2018-Apr-15 20:00N 49°00' W 123°08'1 2.2
2018-Apr-15 19:30N 48°59' W 123°09'1020.0
2018-Apr-15 19:00N 48°52' W 123°18'815.8
2018-Apr-15 18:30N 48°45' W 123°23'4 7.0
2018-Apr-15 18:00N 48°41' W 123°25'1 1.9
2018-Apr-15 17:30N 48°42' W 123°23'1019.0
2018-Apr-15 17:00N 48°51' W 123°21'918.9
2018-Apr-15 16:30N 48°58' W 123°12'3 6.9
2018-Apr-15 16:01N 49°00' W 123°08'1 1.9
2018-Apr-15 15:30N 48°60' W 123°09'916.2
2018-Apr-15 14:59N 48°53' W 123°17'611.8
2018-Apr-15 14:30N 48°48' W 123°20'714.4
2018-Apr-15 14:00N 48°41' W 123°25'0 0.0
2018-Apr-15 13:30N 48°41' W 123°25'0 0.0
2018-Apr-15 12:52N 48°41' W 123°25'0 0.0
2018-Apr-15 12:28N 48°41' W 123°25'0 0.0
2018-Apr-15 11:58N 48°41' W 123°25'0 0.0
2018-Apr-15 11:25N 48°41' W 123°25'0 0.0
2018-Apr-15 10:55N 48°41' W 123°25'0 0.0
2018-Apr-15 10:28N 48°41' W 123°25'0 0.0
2018-Apr-15 09:58N 48°41' W 123°25'0 0.0
2018-Apr-15 09:28N 48°41' W 123°25'0 0.0
2018-Apr-15 08:55N 48°41' W 123°25'0 0.0
2018-Apr-15 08:28N 48°41' W 123°25'0 0.0
2018-Apr-15 07:58N 48°41' W 123°25'0 0.0
2018-Apr-15 07:28N 48°41' W 123°25'0 0.0
2018-Apr-15 06:58N 48°41' W 123°25'0 0.0
2018-Apr-15 06:28N 48°41' W 123°25'0 0.0
2018-Apr-15 05:58N 48°41' W 123°25'0 0.0
2018-Apr-15 05:30N 48°41' W 123°25'612.3
2018-Apr-15 05:01N 48°47' W 123°21'816.0
2018-Apr-15 04:30N 48°54' W 123°16'815.8
2018-Apr-15 04:00N 49°00' W 123°08'0 0.2
2018-Apr-15 03:30N 49°00' W 123°08'815.8
2018-Apr-15 03:00N 48°54' W 123°16'  

Dump ship's entire track history